ADDS METAR Data INFO
IDs: Format: Raw Decoded Include TAF

Data at: 0044 UTC 22 Oct 2017

KPOF 212353Z AUTO 15010KT 10SM BKN085 24/16 A3002 RMK AO2 RAE20 SLP163 P0000 60000 T02440161 10283 20244 53003
KPOF 212253Z AUTO 15011KT 10SM -RA FEW055 26/16 A3001 RMK AO2 SLP158 P0000 T02610161
KPOF 212153Z AUTO 17010G20KT 10SM -RA FEW055 28/16 A3001 RMK AO2 RAB46 SLP157 P0000 T02780156
KPOF 212053Z AUTO 19013G18KT 10SM FEW055 28/16 A3001 RMK AO2 SLP159 T02830156 56019
KPOF 211953Z AUTO 18014G20KT 10SM BKN060 27/16 A3002 RMK AO2 SLP163 T02720156
KPOF 211853Z AUTO 18013G20KT 10SM BKN044 BKN060 27/16 A3004 RMK AO2 SLP169 T02720161
KPOF 211753Z AUTO 17014G22KT 10SM SCT038 BKN046 27/16 A3007 RMK AO2 SLP177 T02670161 10267 20128 58014
KPOF 211653Z AUTO 20013G18KT 10SM FEW028 SCT038 BKN046 25/15 A3009 RMK AO2 SLP186 T02500150
KPOF 211640Z AUTO 21016G21KT 10SM BKN028 BKN048 OVC055 24/15 A3009 RMK AO2 T02440150
KPOF 211553Z AUTO 17008KT 10SM BKN030 OVC049 22/13 A3011 RMK AO2 SLP193 T02220128
KPOF 211453Z AUTO 17006KT 10SM FEW040 21/13 A3011 RMK AO2 SLP195 T02060128 50005
KPOF 211353Z AUTO 15004KT 10SM BKN043 BKN050 BKN065 18/13 A3012 RMK AO2 SLP197 T01780133
KPOF 211253Z AUTO 00000KT 10SM FEW042 SCT050 13/12 A3011 RMK AO2 SLP194 T01330122
KPOF 211153Z AUTO 00000KT 10SM FEW041 SCT050 13/12 A3010 RMK AO2 SLP190 T01280117 10156 20128 51008
KPOF 211053Z AUTO 00000KT 10SM SCT041 14/12 A3009 RMK AO2 SLP187 T01390122
KPOF 210953Z AUTO 15003KT 10SM CLR 15/12 A3008 RMK AO2 SLP183 T01500122
KPOF 210853Z AUTO 17005KT 10SM CLR 16/12 A3007 RMK AO2 SLP180 T01560122 58001
KPOF 210753Z AUTO 16003KT 10SM CLR 15/12 A3008 RMK AO2 SLP182 T01500117
KPOF 210653Z AUTO 14004KT 10SM CLR 14/11 A3008 RMK AO2 SLP183 T01440111
KPOF 210553Z AUTO 15004KT 10SM CLR 15/12 A3007 RMK AO2 SLP181 T01500117 10189 20133 402500056 58011
KPOF 210453Z AUTO 16005KT 10SM CLR 15/11 A3008 RMK AO2 SLP185 T01500111
KPOF 210353Z AUTO 00000KT 10SM CLR 14/11 A3010 RMK AO2 SLP191 T01390111
KPOF 210253Z AUTO 00000KT 10SM CLR 15/11 A3011 RMK AO2 SLP194 T01500111 53007
KPOF 210153Z AUTO 14003KT 10SM CLR 17/11 A3009 RMK AO2 SLP190 T01670111
KPOF 210053Z AUTO 13004KT 10SM CLR 18/11 A3008 RMK AO2 SLP187 T01780111
KPOF 202353Z AUTO 12003KT 10SM CLR 18/11 A3009 RMK AO2 SLP188 T01780111 10250 20178 58011
KPOF 202253Z AUTO 18005KT 9SM CLR 22/11 A3010 RMK AO2 SLP192 T02170106
KPOF 202153Z AUTO 15009KT 10SM CLR 23/11 A3011 RMK AO2 SLP195 T02330111
KPOF 202053Z AUTO 18006KT 10SM CLR 25/12 A3012 RMK AO2 SLP197 T02500117 56021
KPOF 201953Z AUTO 16006KT 10SM CLR 24/11 A3012 RMK AO2 SLP199 T02390111
KPOF 201853Z AUTO 17010KT 10SM CLR 25/12 A3015 RMK AO2 SLP206 T02500117
KPOF 201753Z AUTO 19007KT 10SM CLR 23/13 A3018 RMK AO2 SLP219 T02330128 10233 20056 58021
KPOF 201653Z AUTO 19006KT 10SM CLR 22/13 A3021 RMK AO2 SLP231 T02170133
KPOF 201553Z AUTO 13004KT 10SM CLR 19/13 A3023 RMK AO2 SLP238 T01890128
KPOF 201453Z AUTO 00000KT 9SM CLR 14/12 A3025 RMK AO2 SLP242 T01440122 50005
KPOF 201353Z AUTO 00000KT 7SM CLR 12/11 A3025 RMK AO2 SLP243 T01170106
KPOF 201253Z AUTO 00000KT 6SM BR CLR 07/07 A3024 RMK AO2 SLP241 T00720072